createdAt,value
2022-11-10T02:44:55.645Z,92.50
2022-11-10T02:46:03.135Z,92.82
2022-11-10T02:50:42.733Z,92.61
2022-11-10T02:53:38.321Z,92.67
2022-11-10T02:54:49.338Z,92.57
2022-11-10T02:58:02.909Z,92.46
2022-11-10T03:01:22.753Z,92.67
2022-11-10T03:04:10.676Z,92.71
2022-11-10T03:05:18.443Z,92.50
2022-11-10T03:06:19.357Z,92.82
2022-11-10T03:11:52.857Z,93.02
2022-11-10T03:14:40.008Z,93.54
2022-11-10T03:17:31.502Z,92.46
2022-11-10T03:18:33.780Z,92.71
2022-11-10T03:23:07.051Z,92.50
2022-11-10T03:24:11.579Z,92.61
2022-11-10T03:25:08.302Z,92.71
2022-11-10T03:26:11.326Z,92.50
2022-11-10T03:27:09.109Z,92.61
2022-11-10T03:30:23.178Z,92.92
2022-11-10T03:31:24.591Z,93.43
2022-11-10T03:33:07.083Z,93.12
2022-11-10T03:35:40.017Z,93.02
2022-11-10T03:36:42.399Z,93.33
2022-11-10T03:39:29.961Z,93.54
2022-11-10T03:40:30.238Z,93.02
2022-11-10T03:41:31.527Z,94.05
2022-11-10T03:42:42.400Z,93.02
2022-11-10T03:43:32.664Z,93.43
2022-11-10T03:44:50.138Z,93.43
2022-11-10T03:45:32.306Z,93.54
2022-11-10T03:47:05.168Z,93.02
2022-11-10T03:47:32.855Z,93.12
2022-11-10T03:48:35.005Z,93.12
2022-11-10T03:49:55.726Z,93.12
2022-11-10T03:50:55.780Z,93.02
2022-11-10T03:51:39.706Z,93.12
2022-11-10T03:52:35.727Z,93.33
2022-11-10T03:53:42.926Z,94.26
2022-11-10T03:55:33.946Z,93.12
2022-11-10T04:01:02.889Z,93.16
2022-11-10T04:02:11.682Z,93.16
2022-11-10T04:03:04.170Z,93.79
2022-11-10T04:04:04.062Z,93.58
2022-11-10T04:05:07.451Z,93.06
2022-11-10T04:06:08.167Z,93.16
2022-11-10T04:07:02.871Z,93.48
2022-11-10T04:08:02.782Z,93.37
2022-11-10T04:09:03.294Z,93.37
2022-11-10T04:10:02.806Z,93.68
2022-11-10T04:11:03.104Z,93.58
2022-11-10T04:12:04.421Z,93.79
2022-11-10T04:13:05.670Z,93.79
2022-11-10T04:14:09.087Z,93.79
2022-11-10T04:15:03.951Z,93.58
2022-11-10T04:16:03.885Z,93.48
2022-11-10T04:17:03.675Z,93.88
2022-11-10T04:18:05.189Z,93.99
2022-11-10T04:19:03.659Z,93.79
2022-11-10T04:20:19.052Z,94.09
2022-11-10T04:21:05.476Z,94.20
2022-11-10T04:22:02.900Z,94.03
2022-11-10T04:23:15.017Z,93.88
2022-11-10T04:24:18.386Z,94.09
2022-11-10T04:25:03.904Z,93.88
2022-11-10T04:26:30.667Z,93.06
2022-11-10T04:28:24.376Z,90.73
2022-11-10T04:29:33.703Z,89.81
2022-11-10T04:30:29.003Z,88.99
2022-11-10T04:31:54.810Z,89.09
2022-11-10T04:32:36.426Z,88.78
2022-11-10T04:33:30.654Z,88.41
2022-11-10T04:34:30.467Z,88.62
2022-11-10T04:36:10.311Z,88.72
2022-11-10T04:38:08.411Z,89.17
2022-11-10T04:39:09.086Z,88.86
2022-11-10T04:40:37.501Z,88.45
2022-11-10T04:44:05.507Z,89.11
2022-11-10T04:45:11.510Z,89.25
2022-11-10T04:46:31.784Z,89.56
2022-11-10T04:47:29.757Z,90.02
2022-11-10T04:48:30.225Z,89.86
2022-11-10T04:49:08.596Z,90.06
2022-11-10T04:50:08.187Z,90.16
2022-11-10T04:51:15.409Z,90.31
2022-11-10T04:52:35.195Z,91.44
2022-11-10T04:53:32.642Z,91.55
2022-11-10T04:54:47.213Z,91.86
2022-11-10T04:55:36.751Z,92.11
2022-11-10T04:57:58.791Z,91.96
2022-11-10T05:00:11.792Z,92.38
2022-11-10T05:01:25.323Z,91.59
2022-11-10T05:03:52.277Z,90.77
2022-11-10T05:08:21.594Z,89.29
2022-11-10T05:09:22.392Z,90.02
2022-11-10T05:10:22.074Z,90.44
2022-11-10T05:11:46.750Z,90.33
2022-11-10T05:12:25.454Z,90.84
2022-11-10T05:13:55.493Z,91.36
2022-11-10T05:15:34.093Z,91.78
2022-11-10T05:21:55.693Z,91.51
2022-11-10T05:23:59.861Z,92.13
2022-11-10T05:25:41.093Z,92.24
2022-11-10T05:34:43.978Z,93.10
2022-11-10T05:36:13.680Z,93.62
2022-11-10T05:36:51.915Z,92.94
2022-11-10T05:37:51.620Z,93.15
2022-11-10T05:38:47.016Z,93.46
2022-11-10T05:42:55.431Z,93.40
2022-11-10T05:43:41.030Z,93.71
2022-11-10T06:27:10.577Z,92.57
2022-11-10T06:32:19.771Z,94.02
2022-11-10T06:33:21.467Z,94.12
2022-11-10T06:34:20.962Z,93.81
2022-11-10T06:35:20.846Z,93.13
2022-11-10T06:36:20.771Z,93.33
2022-11-10T06:37:20.822Z,93.44
2022-11-10T06:38:20.779Z,93.54
2022-11-10T06:39:20.754Z,93.54
2022-11-10T06:40:21.491Z,93.96
2022-11-10T06:41:25.182Z,93.54
2022-11-10T06:42:21.731Z,93.40
2022-11-10T06:43:21.067Z,93.40
2022-11-10T06:44:20.788Z,93.29
2022-11-10T06:45:20.692Z,93.75
2022-11-10T06:46:20.713Z,93.85
2022-11-10T06:47:20.694Z,92.61
2022-11-10T06:48:20.715Z,93.28
2022-11-10T06:49:20.665Z,92.55
2022-11-10T06:50:20.655Z,92.86
2022-11-10T06:51:20.693Z,92.86
2022-11-10T06:52:20.670Z,92.55
2022-11-10T06:53:25.768Z,92.59
2022-11-10T06:54:22.646Z,93.74
2022-11-10T06:55:20.680Z,93.59
2022-11-10T06:56:20.605Z,93.53
2022-11-10T06:57:20.641Z,93.43
2022-11-10T06:58:20.579Z,93.74
2022-11-10T06:59:20.576Z,93.53
2022-11-10T07:00:20.591Z,93.49
2022-11-10T07:01:22.648Z,93.38
2022-11-10T07:02:21.564Z,93.70
2022-11-10T07:03:20.868Z,94.01
2022-11-10T07:04:21.081Z,94.01
2022-11-10T07:05:20.558Z,93.38
2022-11-10T07:06:20.475Z,93.38
2022-11-10T07:07:20.506Z,93.28
2022-11-10T07:08:20.545Z,93.38
2022-11-10T07:09:20.457Z,93.38
2022-11-10T07:10:20.500Z,93.38
2022-11-10T07:11:20.479Z,93.49
2022-11-10T07:12:20.447Z,92.97
2022-11-10T07:13:20.912Z,92.86
2022-11-10T07:14:20.491Z,92.80
2022-11-10T07:15:20.423Z,92.76
2022-11-10T07:16:24.318Z,93.18
2022-11-10T07:17:21.412Z,92.90
2022-11-10T07:18:20.417Z,93.68
2022-11-10T07:19:20.388Z,94.30
2022-11-10T07:20:20.378Z,94.82
2022-11-10T07:21:20.361Z,95.13
2022-11-10T07:22:20.331Z,95.86
2022-11-10T07:23:20.730Z,95.96
2022-11-10T07:24:20.288Z,96.06
2022-11-10T07:25:20.333Z,96.02
2022-11-10T07:26:20.273Z,96.23
2022-11-10T07:27:20.280Z,96.95
2022-11-10T07:28:23.481Z,96.23
2022-11-10T07:29:21.280Z,96.81
2022-11-10T07:30:20.301Z,96.70
2022-11-10T07:31:20.250Z,97.12
2022-11-10T07:32:20.263Z,96.66
2022-11-10T07:33:20.568Z,96.86
2022-11-10T07:34:20.240Z,96.92
2022-11-10T07:35:20.218Z,97.03
2022-11-10T07:36:20.196Z,96.72
2022-11-10T07:37:20.147Z,97.03
2022-11-10T07:38:21.199Z,96.61
2022-11-10T07:39:20.202Z,96.88
2022-11-10T07:40:20.162Z,96.51
2022-11-10T07:41:20.141Z,96.51
2022-11-10T07:42:20.134Z,96.05
2022-11-10T07:43:20.547Z,95.74
2022-11-10T07:44:20.149Z,95.57
2022-11-10T07:45:20.101Z,94.91
2022-11-10T07:46:20.124Z,94.81
2022-11-10T07:47:20.089Z,96.05
2022-11-10T07:48:20.080Z,97.83
2022-11-10T07:49:20.107Z,98.83
2022-11-10T07:50:23.198Z,99.40
2022-11-10T07:51:20.038Z,99.21
2022-11-10T07:52:20.018Z,99.47
2022-11-10T07:53:20.311Z,99.47
2022-11-10T07:54:20.046Z,99.43
2022-11-10T07:55:20.089Z,99.90
2022-11-10T07:56:19.990Z,99.99
2022-11-10T07:57:19.997Z,99.85
2022-11-10T07:58:19.998Z,99.60
2022-11-10T07:59:20.011Z,99.49
2022-11-10T08:00:19.951Z,99.34
2022-11-10T08:01:20.036Z,99.34
2022-11-10T08:02:19.957Z,99.40
2022-11-10T08:03:20.073Z,99.09
2022-11-10T08:04:20.085Z,98.68
2022-11-10T08:05:19.939Z,98.22
2022-11-10T08:06:20.031Z,97.81
2022-11-10T08:07:20.052Z,97.40
2022-11-10T08:08:19.893Z,97.09
2022-11-10T08:09:19.919Z,96.84
2022-11-10T08:10:19.874Z,95.81
2022-11-10T08:11:19.851Z,96.02
2022-11-10T08:12:19.828Z,95.50
2022-11-10T08:13:20.184Z,95.92
2022-11-10T08:14:19.855Z,95.30
2022-11-10T08:15:19.796Z,95.20
2022-11-10T08:16:19.791Z,95.05
2022-11-10T08:17:19.846Z,94.84
2022-11-10T08:18:19.811Z,95.05
2022-11-10T08:19:19.758Z,95.05
2022-11-10T08:20:19.742Z,94.95
2022-11-10T08:21:19.768Z,94.95
2022-11-10T08:22:19.761Z,94.18
2022-11-10T08:23:20.043Z,93.98
2022-11-10T08:24:19.734Z,94.39
2022-11-10T08:25:19.698Z,94.29
2022-11-10T08:26:19.717Z,93.87
2022-11-10T08:27:19.660Z,93.93
2022-11-10T08:28:19.705Z,93.52
2022-11-10T08:29:19.708Z,93.32
2022-11-10T08:30:19.681Z,93.32
2022-11-10T08:31:19.625Z,93.42
2022-11-10T08:32:19.670Z,93.21
2022-11-10T08:33:20.100Z,93.32
2022-11-10T08:34:19.635Z,93.01
2022-11-10T08:35:19.664Z,92.91
2022-11-10T08:36:19.662Z,92.80
2022-11-10T08:37:19.615Z,92.70
2022-11-10T08:38:19.653Z,92.91
2022-11-10T08:39:37.721Z,93.01
2022-11-10T08:40:21.593Z,92.91
2022-11-10T08:41:20.488Z,93.57
2022-11-10T08:42:19.633Z,93.26
2022-11-10T08:43:19.745Z,93.36
2022-11-10T08:44:21.069Z,93.36
2022-11-10T08:45:20.555Z,93.42
2022-11-10T08:46:19.574Z,93.52
2022-11-10T08:47:19.481Z,93.63
2022-11-10T08:48:19.505Z,93.63
2022-11-10T08:49:19.495Z,93.48
2022-11-10T08:50:19.493Z,93.59
2022-11-10T08:51:19.431Z,93.44
2022-11-10T08:52:19.455Z,92.93
2022-11-10T08:53:19.664Z,92.72
2022-11-10T08:54:19.461Z,92.31
2022-11-10T08:55:19.407Z,92.51
2022-11-10T08:56:19.431Z,92.61
2022-11-10T08:57:19.398Z,92.57
2022-11-10T08:58:19.394Z,92.68
2022-11-10T09:05:41.776Z,91.35
2022-11-10T09:06:43.297Z,91.55
2022-11-10T09:07:42.842Z,91.03
2022-11-10T09:08:42.881Z,91.20
2022-11-10T09:09:43.138Z,91.50
2022-11-10T09:10:42.846Z,90.69
2022-11-10T09:11:42.914Z,91.40
2022-11-10T09:12:42.946Z,91.20
2022-11-10T09:13:42.885Z,91.20
2022-11-10T09:14:42.819Z,91.30
2022-11-10T09:15:43.700Z,91.09
